TimeMDT,TemperatureF,Dew PointF,Humidity,Sea Level PressureIn,VisibilityMPH,Wind Direction,Wind SpeedMPH,Gust SpeedMPH,PrecipitationIn,Events,Conditions,WindDirDegrees,DateUTC
12:15 AM,36.3,19.9,52,29.72,10.0,NE,9.2,-,N/A,,Clear,50,2013-03-21 06:15:00
12:35 AM,32.5,21.4,64,29.72,10.0,Calm,Calm,-,N/A,,Clear,0,2013-03-21 06:35:00
12:55 AM,35.4,21.0,56,29.71,10.0,Calm,Calm,-,N/A,,Clear,0,2013-03-21 06:55:00
1:15 AM,34.7,21.2,58,29.70,10.0,Calm,Calm,-,N/A,,Clear,0,2013-03-21 07:15:00
1:35 AM,34.5,21.2,58,29.70,10.0,Calm,Calm,-,N/A,,Scattered Clouds,0,2013-03-21 07:35:00
1:55 AM,35.1,21.2,57,29.70,10.0,Calm,Calm,-,N/A,,Scattered Clouds,0,2013-03-21 07:55:00
2:15 AM,33.4,21.9,63,29.70,10.0,West,6.9,-,N/A,,Scattered Clouds,260,2013-03-21 08:15:00
2:35 AM,32.2,22.3,67,29.69,10.0,West,4.6,-,N/A,,Scattered Clouds,280,2013-03-21 08:35:00
2:55 AM,32.0,22.1,67,29.69,10.0,West,3.5,-,N/A,,Clear,270,2013-03-21 08:55:00
3:15 AM,30.2,22.3,72,29.68,10.0,West,5.8,-,N/A,,Clear,260,2013-03-21 09:15:00
3:35 AM,31.3,21.4,67,29.67,10.0,West,3.5,-,N/A,,Clear,280,2013-03-21 09:35:00
3:55 AM,34.2,21.0,59,29.66,10.0,Calm,Calm,-,N/A,,Clear,0,2013-03-21 09:55:00
4:15 AM,29.1,20.8,71,29.66,10.0,Calm,Calm,-,N/A,,Clear,0,2013-03-21 10:15:00
4:35 AM,28.9,21.7,74,29.66,10.0,Calm,Calm,-,N/A,,Clear,0,2013-03-21 10:35:00
4:55 AM,29.7,21.7,72,29.65,10.0,Calm,Calm,-,N/A,,Clear,0,2013-03-21 10:55:00
5:15 AM,25.9,18.7,74,29.65,10.0,ENE,3.5,-,N/A,,Clear,60,2013-03-21 11:15:00
5:35 AM,27.0,21.7,81,29.65,10.0,SW,4.6,-,N/A,,Clear,230,2013-03-21 11:35:00
5:55 AM,28.0,22.3,79,29.64,10.0,WNW,5.8,-,N/A,,Clear,290,2013-03-21 11:55:00
6:15 AM,26.4,21.6,82,29.63,10.0,WNW,5.8,-,N/A,,Clear,300,2013-03-21 12:15:00
6:35 AM,27.5,21.7,79,29.63,10.0,NNW,4.6,-,N/A,,Clear,330,2013-03-21 12:35:00
6:55 AM,25.2,20.7,83,29.62,10.0,WNW,3.5,-,N/A,,Clear,290,2013-03-21 12:55:00
7:15 AM,26.2,21.7,83,29.63,10.0,North,3.5,-,N/A,,Clear,360,2013-03-21 13:15:00
7:35 AM,31.6,26.6,82,29.62,10.0,Calm,Calm,-,N/A,,Clear,0,2013-03-21 13:35:00
7:55 AM,31.1,24.6,77,29.62,10.0,NNE,3.5,-,N/A,,Clear,30,2013-03-21 13:55:00
8:15 AM,30.7,23.9,76,29.61,10.0,Calm,Calm,-,N/A,,Clear,0,2013-03-21 14:15:00
8:35 AM,31.1,23.5,74,29.61,10.0,NE,5.8,-,N/A,,Clear,50,2013-03-21 14:35:00
8:55 AM,32.0,24.6,74,29.61,10.0,ENE,3.5,-,N/A,,Mostly Cloudy,60,2013-03-21 14:55:00
9:15 AM,32.4,24.6,73,29.62,10.0,NNE,6.9,-,N/A,,Mostly Cloudy,20,2013-03-21 15:15:00
9:35 AM,34.2,24.8,69,29.62,10.0,North,8.1,-,N/A,,Overcast,360,2013-03-21 15:35:00
9:55 AM,36.5,24.6,62,29.62,10.0,NNW,10.4,-,N/A,,Overcast,330,2013-03-21 15:55:00
10:15 AM,38.7,25.5,59,29.62,10.0,NNW,8.1,-,N/A,,Overcast,340,2013-03-21 16:15:00
10:35 AM,41.9,25.0,51,29.62,10.0,North,10.4,-,N/A,,Mostly Cloudy,360,2013-03-21 16:35:00
10:55 AM,42.4,24.6,49,29.62,10.0,ENE,3.5,-,N/A,,Mostly Cloudy,70,2013-03-21 16:55:00
11:15 AM,42.4,23.9,48,29.61,10.0,North,8.1,-,N/A,,Overcast,10,2013-03-21 17:15:00
11:35 AM,43.0,28.8,57,29.57,10.0,ENE,12.7,-,N/A,,Overcast,60,2013-03-21 17:35:00
11:55 AM,44.8,27.1,50,29.57,10.0,East,11.5,-,N/A,,Overcast,80,2013-03-21 17:55:00
12:15 PM,47.8,27.9,46,29.57,10.0,ENE,9.2,-,N/A,,Mostly Cloudy,70,2013-03-21 18:15:00
12:35 PM,49.5,28.2,44,29.57,10.0,East,11.5,-,N/A,,Scattered Clouds,80,2013-03-21 18:35:00
12:55 PM,49.6,27.5,42,29.57,10.0,ESE,9.2,-,N/A,,Clear,120,2013-03-21 18:55:00
1:15 PM,52.2,26.8,37,29.57,10.0,East,11.5,-,N/A,,Clear,100,2013-03-21 19:15:00
1:35 PM,53.4,26.8,36,29.57,10.0,SE,8.1,-,N/A,,Scattered Clouds,140,2013-03-21 19:35:00
1:55 PM,55.6,26.2,32,29.56,10.0,East,6.9,16.1,N/A,,Scattered Clouds,90,2013-03-21 19:55:00
2:15 PM,57.0,27.5,32,29.55,10.0,ESE,8.1,18.4,N/A,,Scattered Clouds,120,2013-03-21 20:15:00
2:35 PM,55.2,28.0,35,29.56,10.0,Calm,Calm,-,N/A,,Mostly Cloudy,0,2013-03-21 20:35:00
2:55 PM,43.0,32.9,68,29.58,10.0,North,35.7,42.6,N/A,,Overcast,350,2013-03-21 20:55:00
3:15 PM,39.6,35.6,86,29.59,10.0,North,27.6,35.7,N/A,,Overcast,350,2013-03-21 21:15:00
3:35 PM,38.7,35.1,87,29.60,10.0,North,26.5,38.0,N/A,Thunderstorm,Overcast,360,2013-03-21 21:35:00
3:55 PM,40.1,35.2,83,29.64,10.0,NNW,16.1,26.5,N/A,Thunderstorm,Overcast,340,2013-03-21 21:55:00
4:15 PM,39.4,35.6,86,29.66,2.0,NW,18.4,26.5,N/A,Thunderstorm,Overcast,320,2013-03-21 22:15:00
4:35 PM,39.2,36.3,89,29.66,3.0,North,10.4,-,N/A,,Overcast,360,2013-03-21 22:35:00
4:55 PM,40.1,34.5,80,29.66,5.0,NW,13.8,20.7,N/A,,Overcast,320,2013-03-21 22:55:00
5:15 PM,42.4,32.0,67,29.65,10.0,North,5.8,17.3,N/A,,Overcast,350,2013-03-21 23:15:00
5:35 PM,43.2,31.6,64,29.66,10.0,NNW,23.0,34.5,N/A,,Overcast,330,2013-03-21 23:35:00
5:55 PM,42.8,31.6,65,29.66,10.0,NNW,13.8,17.3,N/A,,Overcast,330,2013-03-21 23:55:00
6:15 PM,43.0,33.3,69,29.68,10.0,North,12.7,-,N/A,,Mostly Cloudy,360,2013-03-22 00:15:00
6:35 PM,40.8,33.3,74,29.68,10.0,North,5.8,-,N/A,,Mostly Cloudy,360,2013-03-22 00:35:00
6:55 PM,40.6,32.4,72,29.70,10.0,NNW,8.1,-,N/A,,Overcast,340,2013-03-22 00:55:00
7:15 PM,40.6,31.1,69,29.72,10.0,North,8.1,-,N/A,,Overcast,350,2013-03-22 01:15:00
7:35 PM,39.7,29.5,67,29.73,10.0,NNW,11.5,16.1,N/A,,Mostly Cloudy,340,2013-03-22 01:35:00
7:55 PM,40.6,23.4,50,29.74,10.0,NNW,20.7,27.6,N/A,,Overcast,330,2013-03-22 01:55:00
8:15 PM,39.2,21.4,49,29.75,10.0,NNW,17.3,26.5,N/A,,Scattered Clouds,330,2013-03-22 02:15:00
8:35 PM,37.6,20.1,49,29.76,10.0,NW,23.0,27.6,N/A,,Scattered Clouds,320,2013-03-22 02:35:00
8:55 PM,37.6,18.7,47,29.77,10.0,North,-9999.0,-,N/A,,Clear,0,2013-03-22 02:55:00
9:15 PM,37.4,17.8,45,29.79,10.0,NW,24.2,32.2,N/A,,Clear,310,2013-03-22 03:15:00
9:35 PM,37.8,16.2,42,29.79,10.0,NW,24.2,31.1,N/A,,Clear,310,2013-03-22 03:35:00
9:55 PM,36.0,19.0,50,29.80,10.0,NNW,17.3,-,N/A,,Clear,330,2013-03-22 03:55:00
10:15 PM,34.2,19.9,56,29.81,10.0,NNW,15.0,-,N/A,,Clear,340,2013-03-22 04:15:00
10:35 PM,34.7,19.6,54,29.81,10.0,NNW,16.1,-,N/A,,Clear,330,2013-03-22 04:35:00
10:55 PM,34.5,20.8,57,29.82,10.0,NNW,16.1,19.6,N/A,,Clear,340,2013-03-22 04:55:00
11:15 PM,32.4,26.4,79,29.84,10.0,North,11.5,-,N/A,,Clear,350,2013-03-22 05:15:00
11:35 PM,31.5,26.4,82,29.83,10.0,North,15.0,-,N/A,,Clear,360,2013-03-22 05:35:00
11:55 PM,30.7,25.9,82,29.83,10.0,North,16.1,-,N/A,,Clear,350,2013-03-22 05:55:00